WEATHER DATA

YESTERDAY
Time Temp. Dewp. Hum. Wind dir Wind speed Wind gust Bar. 1h Prec. 24h Prec.
00:07 4.3 2.3 87 285 2.5 6.4 1017.5 0.0000 0.0000
00:17 4.3 2.3 87 288 2.2 4.4 1017.6 0.0000 0.0000
00:27 4.3 2.2 86 270 2.2 5 1017.7 0.0000 0.0000
00:37 4.2 2.1 86 263 2.5 5.3 1017.7 0.0000 0.0000
00:47 4.2 2.2 87 270 2.5 6.4 1017.9 0.0000 0.0000
00:57 4.2 2.2 87 280 2.2 7.8 1018.1 0.0000 0.0000
01:08 4.2 2.2 87 281 2.2 5.3 1018.2 0.0000 0.0000
01:17 4.3 2.2 86 270 2.5 5.6 1018.4 0.0000 0.0000
01:27 4.3 2.2 86 276 2.2 4.4 1018.4 0.0000 0.0000
01:37 4.3 2.3 87 294 1.7 4.2 1018.6 0.0000 0.0000
01:48 4.3 2.3 87 297 2.2 6.7 1018.6 0.0000 0.0000
01:57 4.3 2.3 87 290 1.7 4.4 1018.8 0.0000 0.0000
02:07 4.3 2.2 86 282 2.2 4.4 1018.9 0.0000 0.0000
02:18 4.3 2.2 86 274 2.2 5.6 1019.1 0.0000 0.0000
02:28 4.3 2.2 86 283 2.2 6.9 1019.3 0.0000 0.0000
02:38 4.2 2.2 87 276 2.5 5 1019.5 0.0000 0.0000
02:48 4.1 2.1 87 281 2.2 5.6 1019.6 0.0000 0.0000
02:58 4 2.2 88 284 2.2 5.8 1019.8 0.0000 0.0000
03:08 4 2.2 88 293 2.5 5.3 1020 0.0000 0.0000
03:18 4.2 2.2 87 285 2.8 5.8 1020 0.0000 0.0000
03:29 4.3 2.2 86 298 2.2 5 1020.1 0.0000 0.0000
03:48 4.2 1.9 85 270 2.2 5.8 1020.5 0.0000 0.0000
03:58 4.2 1.9 85 281 2.2 5.6 1020.6 0.0000 0.0000
04:09 4.1 2 86 287 1.4 4.2 1020.6 0.0000 0.0000
04:23 3.7 1.7 87 283 1.1 2.8 1020.7 0.0000 0.0000
04:33 3.6 1.6 87 288 1.7 5 1020.8 0.0000 0.0000
04:44 3.5 1.7 88 287 1.1 3.6 1020.9 0.0000 0.0000
04:54 3.4 1.6 88 291 1.7 3.1 1021.1 0.0000 0.0000
05:04 3.3 1.5 88 285 1.4 3.9 1021 0.0000 0.0000
05:14 3.3 1.3 87 292 2.2 6.4 1021 0.0000 0.0000
05:24 3.4 1.1 85 288 2.2 5 1021.2 0.0000 0.0000
05:34 3.4 1.1 85 290 1.7 3.6 1021.3 0.0000 0.0000
05:44 3.2 1.1 86 280 1.4 4.2 1021.4 0.0000 0.0000
05:54 3.1 1 86 291 1.7 3.9 1021.5 0.0000 0.0000
06:04 3 0.9 86 285 1.7 4.2 1021.7 0.0000 0.0000
06:18 2.9 0.8 86 292 1.4 4.4 1021.9 0.0000 0.0000
06:37 2.8 0.9 87 293 1.7 3.9 1022.2 0.0000 0.0000
06:48 3 1.2 88 285 2.5 5.3 1022.3 0.0000 0.0000
06:58 3.3 1.3 87 281 2.5 6.4 1022.4 0.0000 0.0000
07:07 3.4 1.4 87 300 1.1 2.8 1022.4 0.0000 0.0000
07:18 3.5 1.4 86 300 1.7 3.9 1022.4 0.0000 0.0000
07:43 3.7 1.6 86 282 1.1 3.9 1022.6 0.0000 0.0000
07:53 3.7 1.6 86 298 1.4 3.9 1022.9 0.0000 0.0000
08:03 3.7 1.6 86 290 1.7 3.9 1022.9 0.0000 0.0000
08:13 3.6 1.6 87 285 1.4 3.1 1023.1 0.0000 0.0000
08:23 3.4 1.4 87 289 1.4 4.4 1023 0.0000 0.0000
08:34 3.3 1.3 87 270 1.7 3.9 1023.1 0.0000 0.0000
08:43 3.2 1.4 88 277 1.4 5.3 1023.2 0.0000 0.0000
08:53 3.3 1.5 88 298 1.7 4.2 1023.2 0.0000 0.0000
09:03 3.4 1.6 88 291 2.2 4.4 1023.4 0.0000 0.0000
09:14 3.4 1.6 88 287 1.7 3.6 1023.3 0.0000 0.0000
09:24 3.6 1.8 88 288 2.2 5.8 1023.5 0.0000 0.0000
09:33 3.7 1.7 87 288 2.2 4.4 1023.5 0.0000 0.0000
09:43 3.7 1.7 87 284 2.5 6.4 1023.6 0.0000 0.0000
09:54 4 2 87 289 2.8 8.1 1023.8 0.0000 0.0000
10:04 4.1 2.3 88 289 2.2 5.6 1023.9 0.0000 0.0000
10:14 4 2.5 90 284 2.5 5.8 1023.9 0.1010 0.1000
10:29 3.9 2.7 92 290 2.2 5 1023.9 0.1010 0.1000
10:39 3.8 2.5 91 296 1.7 5.8 1024 0.1010 0.1000
10:49 3.7 2.2 90 286 2.2 5.3 1024.1 0.1010 0.1000
11:00 3.8 2.2 89 280 2.2 4.4 1024.1 0.1010 0.1000
11:09 4 2.4 89 270 1.7 4.2 1024.1 0.1010 0.1000
11:19 3.9 2.1 88 279 1.7 5.3 1024 0.0000 0.1000
11:40 3.9 2.1 88 278 1.7 5 1024 0.0000 0.1000
12:00 4.1 2.1 87 279 2.2 5 1024 0.0000 0.1000
12:10 4.2 2.2 87 275 2.2 4.4 1023.9 0.0000 0.1000
12:29 4.7 2.7 87 270 2.8 8.1 1023.5 0.0000 0.1000
12:50 5.2 2.9 85 289 3.9 8.1 1023.4 0.0000 0.1000
13:08 5.7 3 83 283 4.2 13.9 1023.2 0.0000 0.1000
13:18 5.5 2.8 83 298 4.2 8.1 1023.5 0.0000 0.1000
13:28 5.5 2.7 82 293 3.1 7.8 1023.6 0.0000 0.1000
13:43 5.4 2.7 83 278 2.8 5.8 1023.6 0.0000 0.1000
13:53 5.2 2.6 83 279 1.7 5 1023.4 0.0000 0.1000
14:03 5.2 2.6 83 270 2.2 5.3 1023.5 0.0000 0.1000
14:14 5.1 2.5 83 286 2.5 6.4 1023.4 0.0000 0.1000
14:24 4.9 2.3 83 270 2.2 4.4 1023.3 0.0000 0.1000
14:33 4.8 2.3 84 283 2.5 7.2 1023.5 0.0000 0.1000
14:44 4.8 2.7 86 283 2.2 6.9 1023.5 0.0000 0.1000
14:54 4.8 2.7 86 286 2.5 5.8 1023.7 0.0000 0.1000
15:04 4.7 2.7 87 281 2.2 6.4 1023.6 0.0000 0.1000
15:14 4.7 2.6 86 277 1.7 4.4 1023.6 0.0000 0.1000
15:24 4.6 2.6 87 270 1.4 3.1 1023.6 0.0000 0.1000
15:34 4.5 2.5 87 285 1.1 4.2 1023.6 0.0000 0.1000
15:44 4.4 2.4 87 301 1.7 4.4 1023.7 0.0000 0.1000
15:55 4.4 2.7 89 292 2.8 6.9 1023.8 0.0000 0.1000
16:05 4.2 2.7 90 270 1.4 2.8 1023.6 0.0000 0.1000
16:14 4.2 2.7 90 280 1.7 5.6 1023.7 0.0000 0.1000
16:24 4.2 2.6 89 288 2.2 5 1023.6 0.0000 0.1000
16:35 4 2.4 89 297 1.4 4.2 1023.5 0.0000 0.1000
16:45 4.1 2.5 89 296 2.2 4.2 1023.6 0.0000 0.1000
16:55 4.4 2.6 88 296 2.8 5.6 1023.7 0.0000 0.1000
17:05 4.6 2.8 88 282 1.7 5.6 1023.6 0.0000 0.1000
17:15 4.6 2.6 87 304 1.7 4.2 1023.7 0.0000 0.1000
17:25 4.5 2.5 87 295 1.7 4.2 1023.6 0.0000 0.1000
17:35 4.5 2.5 87 298 2.5 5.6 1023.8 0.0000 0.1000
17:46 4.7 2.7 87 295 2.2 3.9 1023.8 0.0000 0.1000
17:55 4.7 2.9 88 293 1.7 4.2 1024 0.1010 0.2000
18:05 4.7 2.7 87 296 2.2 6.7 1023.9 0.1010 0.2000
18:16 4.8 2.7 86 288 2.2 4.4 1024 0.1010 0.2000
18:31 4.7 2.7 87 303 1.7 4.4 1024 0.1010 0.2000
18:40 4.7 2.6 86 290 1.7 3.9 1023.9 0.1010 0.2000
18:51 4.6 2.6 87 298 2.2 5.3 1024 0.0000 0.2000
19:01 4.4 2.4 87 303 1.7 4.4 1024.1 0.0000 0.2000
19:11 4.3 2.2 86 317 1.7 5 1024.2 0.0000 0.2000
19:21 4.2 2.2 87 300 2.2 7.2 1024.3 0.0000 0.2000
19:41 4.2 2.2 87 304 2.2 5.8 1024.6 0.0000 0.2000
19:51 4.1 2.3 88 313 2.2 5 1024.7 0.0000 0.2000
20:01 4.1 2.3 88 311 2.5 5.6 1024.8 0.0000 0.2000
20:21 3.9 2.3 89 293 2.2 4.2 1024.9 0.0000 0.2000
20:31 3.8 2.2 89 290 2.2 5 1025 0.0000 0.2000
20:47 3.7 2.1 89 295 1.7 5.6 1025.1 0.0000 0.2000
20:57 3.7 2.2 90 287 2.2 4.2 1025.1 0.0000 0.2000
21:07 3.7 2.2 90 290 2.2 4.2 1025.2 0.0000 0.2000
21:17 3.7 2.2 90 291 1.7 3.1 1025.3 0.0000 0.2000
21:27 3.5 2 90 288 1.7 5.6 1025.4 0.0000 0.2000
21:37 3.5 2.2 91 304 1.7 4.2 1025.5 0.0000 0.2000
21:47 3.6 2.3 91 297 2.2 4.2 1025.6 0.0000 0.2000
21:54 3.6 2.3 91 304 2.5 7.8 1025.5 0.0000 0.2000
22:05 3.7 2.4 91 300 2.2 5 1025.7 0.0000 0.2000
22:15 3.7 2.4 91 295 1.7 3.9 1025.7 0.0000 0.2000
22:25 3.7 2.2 90 309 1.7 4.4 1025.7 0.0000 0.2000
22:34 3.7 2.2 90 296 1.7 4.4 1025.7 0.0000 0.2000
22:45 3.8 2.3 90 307 1.7 4.2 1025.7 0.0000 0.2000
22:55 3.7 2.2 90 297 2.2 5.3 1025.8 0.0000 0.2000
23:15 3.7 2.2 90 300 2.5 5.6 1025.8 0.0000 0.2000
23:25 3.7 2.4 91 296 2.2 3.9 1025.9 0.0000 0.2000
23:35 3.7 2.4 91 297 2.2 5.6 1025.9 0.0000 0.2000
23:45 3.7 2.4 91 287 2.2 5.8 1026.1 0.0000 0.2000
23:56 3.7 2.4 91 300 1.7 3.9 1026.1 0.0000 0.2000

DAY STATISTIC

2018-12-10
TEMPERATURE
AVERAGE
4.1
HIGH
5.7
13:08
LOW
2.8
06:37
PRESSURE
AVERAGE
1022.8
HIGH
1026.1
23:45
LOW
1017.5
00:07
DEWPOINT
AVERAGE
2.2
HIGH
3.0
13:08
LOW
0.8
06:18
HUMIDITY
AVERAGE
87
HIGH
92
10:29
LOW
82
13:28
WIND SPEED
AVERAGE
2.1
HIGH
4.2
13:08
WIND GUST
AVERAGE
5.1
HIGH
13.9
13:08
WIND DIRECTION
PREVAILING
W
65.1%
N
0.0
NE
0.0
E
0.0
SE
0.0
S
0.0
SW
0.0
W
65.1
NW
34.9
PRECIPITATION
RAIN HOUR
0.1
RAIN DAY
0.2
TEMPERATURE (°C)
LOW
2.8
HIGH
5.7
AVERAGE
4.1
PRESSURE (hpa)
LOW
1017.5
HIGH
1026.1
AVERAGE
1022.8
DEVICE